Terminal Aerodrome Forecast
Issued by NWS Brownsville, TX

Home | Current Version | Previous Version | Text Only | Print | Product List | Glossary On
Versions: 1 2 3 4 5 6 7 8 9 10 11 12
275
FTUS44 KBRO 232328
TAFBRO
TAF
KBRO 232328Z 2400/2424 15019G26KT P6SM FEW040
     FM240300 15014G19KT P6SM FEW035 SCT250
     FM241600 17020G27KT P6SM BKN050
     FM242200 16017G23KT P6SM SCT050=

USA.gov is the U.S. government's official web portal to all federal, state and local government web resources and services.